KPF4 KAUS-KTEB
Flight info
| Callsign | KPF4 |
|---|---|
| Flight time | N/A |
| Altitude | 39000 |
| Route | ILEXY4 ZENZI LFK SUTTN J29 CARIN MEMFS Q29 JHW LVZ5 |
| Aircraft | CL60/M-SBDE1E2E3FGHIJ1J4J5J7M3RWXYZ/LB1V1D1 |
Departure
| Time | 2026-05-04 07:28 |
|---|---|
| Airport | Austin Bergstrom International Airport (KAUS) |
Arrival
| Time | N/A |
|---|---|
| Airport | Teterboro Airport (KTEB) |
| Time | Latitude | Longitude | Altitude | Speed | Heading |
|---|---|---|---|---|---|
| 2026-05-04 06:48 | 30.18604 | -97.66200 | 484 ft | 0 kts | 360° |
| 2026-05-04 07:22 | 30.18806 | -97.66048 | 482 ft | 13 kts | 89° |
| 2026-05-04 07:22 | 30.18808 | -97.65929 | 481 ft | 14 kts | 89° |
| 2026-05-04 07:23 | 30.18873 | -97.65876 | 481 ft | 14 kts | 358° |
| 2026-05-04 07:23 | 30.18982 | -97.65878 | 481 ft | 16 kts | 357° |
| 2026-05-04 07:23 | 30.19108 | -97.65884 | 481 ft | 19 kts | 358° |
| 2026-05-04 07:23 | 30.19247 | -97.65887 | 482 ft | 20 kts | 359° |
| 2026-05-04 07:24 | 30.19400 | -97.65889 | 482 ft | 23 kts | 359° |
| 2026-05-04 07:24 | 30.19567 | -97.65896 | 483 ft | 24 kts | 358° |
| 2026-05-04 07:24 | 30.19736 | -97.65899 | 485 ft | 23 kts | 358° |
| 2026-05-04 07:24 | 30.19887 | -97.65904 | 486 ft | 20 kts | 358° |
| 2026-05-04 07:25 | 30.20030 | -97.65908 | 489 ft | 21 kts | 359° |
| 2026-05-04 07:26 | 30.20300 | -97.65843 | 490 ft | 11 kts | 96° |
| 2026-05-04 07:27 | 30.20260 | -97.65787 | 489 ft | 9 kts | 173° |
| 2026-05-04 07:27 | 30.20212 | -97.65786 | 488 ft | 7 kts | 178° |
| 2026-05-04 07:27 | 30.19949 | -97.65779 | 486 ft | 82 kts | 179° |
| 2026-05-04 07:27 | 30.19076 | -97.65758 | 527 ft | 160 kts | 178° |
| 2026-05-04 07:28 | 30.17888 | -97.65659 | 1294 ft | 178 kts | 174° |
| 2026-05-04 07:28 | 30.16645 | -97.65569 | 2374 ft | 184 kts | 173° |
| 2026-05-04 07:28 | 30.15462 | -97.65016 | 3386 ft | 197 kts | 144° |
| 2026-05-04 07:28 | 30.14690 | -97.63620 | 4199 ft | 227 kts | 108° |
| 2026-05-04 07:29 | 30.14738 | -97.61687 | 4990 ft | 261 kts | 72° |
| 2026-05-04 07:29 | 30.15655 | -97.59924 | 6363 ft | 260 kts | 58° |
| 2026-05-04 07:29 | 30.16545 | -97.58079 | 7458 ft | 272 kts | 60° |
| 2026-05-04 07:29 | 30.17453 | -97.56155 | 8564 ft | 281 kts | 58° |
| 2026-05-04 07:30 | 30.18399 | -97.54181 | 9726 ft | 286 kts | 57° |
| 2026-05-04 07:30 | 30.19372 | -97.52183 | 10889 ft | 289 kts | 56° |
| 2026-05-04 07:30 | 30.20422 | -97.50073 | 11386 ft | 319 kts | 56° |
| 2026-05-04 07:30 | 30.21602 | -97.47758 | 11915 ft | 344 kts | 55° |
| 2026-05-04 07:31 | 30.22862 | -97.45341 | 12749 ft | 355 kts | 54° |
| 2026-05-04 07:31 | 30.24142 | -97.42902 | 13635 ft | 363 kts | 54° |
| 2026-05-04 07:33 | 30.33914 | -97.24345 | 19400 ft | 404 kts | 54° |
| 2026-05-04 07:33 | 30.35176 | -97.21410 | 20153 ft | 413 kts | 66° |
| 2026-05-04 07:33 | 30.35781 | -97.18140 | 20821 ft | 425 kts | 83° |
| 2026-05-04 07:33 | 30.35695 | -97.14644 | 21426 ft | 433 kts | 92° |
| 2026-05-04 07:34 | 30.35481 | -97.11154 | 22029 ft | 438 kts | 91° |
| 2026-05-04 07:34 | 30.35274 | -97.07648 | 22631 ft | 442 kts | 91° |
| 2026-05-04 07:34 | 30.35062 | -97.04047 | 23244 ft | 447 kts | 91° |
| 2026-05-04 07:34 | 30.34850 | -97.00446 | 23858 ft | 451 kts | 92° |
| 2026-05-04 07:35 | 30.34635 | -96.96811 | 24458 ft | 455 kts | 91° |
| 2026-05-04 07:35 | 30.34417 | -96.93134 | 24963 ft | 462 kts | 91° |
| 2026-05-04 07:35 | 30.34196 | -96.89414 | 25494 ft | 467 kts | 91° |
| 2026-05-04 07:35 | 30.33968 | -96.85609 | 25992 ft | 473 kts | 91° |
| 2026-05-04 07:36 | 30.33738 | -96.81788 | 26537 ft | 477 kts | 91° |
| 2026-05-04 07:36 | 30.33502 | -96.77930 | 27044 ft | 482 kts | 92° |
| 2026-05-04 07:38 | 30.31748 | -96.50002 | 30112 ft | 511 kts | 91° |
| 2026-05-04 07:38 | 30.31483 | -96.45863 | 30494 ft | 514 kts | 91° |
| 2026-05-04 07:38 | 30.31217 | -96.41728 | 30845 ft | 518 kts | 91° |
| 2026-05-04 07:38 | 30.30948 | -96.37556 | 31175 ft | 522 kts | 91° |
| 2026-05-04 07:39 | 30.30674 | -96.33336 | 31508 ft | 526 kts | 92° |
| 2026-05-04 07:39 | 30.30397 | -96.29104 | 31830 ft | 528 kts | 91° |
| 2026-05-04 07:39 | 30.30117 | -96.24838 | 32140 ft | 531 kts | 91° |
| 2026-05-04 07:39 | 30.29847 | -96.20574 | 32407 ft | 534 kts | 90° |
| 2026-05-04 07:40 | 30.29826 | -96.16277 | 32670 ft | 533 kts | 84° |
| 2026-05-04 07:40 | 30.30195 | -96.12037 | 33001 ft | 529 kts | 76° |
| 2026-05-04 07:40 | 30.30944 | -96.07893 | 33410 ft | 522 kts | 69° |
| 2026-05-04 07:40 | 30.32039 | -96.03925 | 33811 ft | 515 kts | 62° |
| 2026-05-04 07:41 | 30.33476 | -96.00111 | 34302 ft | 506 kts | 56° |
| 2026-05-04 07:41 | 30.35174 | -95.96595 | 34763 ft | 497 kts | 49° |
| 2026-05-04 07:41 | 30.37127 | -95.93331 | 35221 ft | 487 kts | 43° |
| 2026-05-04 07:41 | 30.39177 | -95.90222 | 35618 ft | 485 kts | 43° |
| 2026-05-04 07:42 | 30.41225 | -95.87118 | 36024 ft | 483 kts | 42° |
| 2026-05-04 07:42 | 30.43263 | -95.84026 | 36343 ft | 483 kts | 42° |
| 2026-05-04 07:42 | 30.45306 | -95.80926 | 36634 ft | 483 kts | 42° |
| 2026-05-04 07:42 | 30.47330 | -95.77849 | 37050 ft | 480 kts | 42° |
| 2026-05-04 07:43 | 30.49362 | -95.74756 | 37408 ft | 478 kts | 42° |
| 2026-05-04 07:43 | 30.51383 | -95.71680 | 37692 ft | 478 kts | 42° |
| 2026-05-04 07:43 | 30.53385 | -95.68631 | 37954 ft | 478 kts | 41° |
| 2026-05-04 07:43 | 30.55398 | -95.65565 | 38187 ft | 479 kts | 41° |
| 2026-05-04 07:44 | 30.57416 | -95.62485 | 38484 ft | 478 kts | 41° |
| 2026-05-04 07:44 | 30.59428 | -95.59415 | 38753 ft | 477 kts | 41° |
| 2026-05-04 07:44 | 30.61445 | -95.56332 | 39009 ft | 476 kts | 41° |
| 2026-05-04 07:44 | 30.63470 | -95.53239 | 39090 ft | 479 kts | 41° |
| 2026-05-04 07:45 | 30.67535 | -95.47027 | 39080 ft | 486 kts | 41° |
| 2026-05-04 07:45 | 30.71630 | -95.40750 | 39076 ft | 490 kts | 42° |
| 2026-05-04 07:46 | 30.75773 | -95.34388 | 39078 ft | 492 kts | 43° |
| 2026-05-04 07:46 | 30.79907 | -95.28027 | 39081 ft | 492 kts | 42° |
| 2026-05-04 07:47 | 30.84031 | -95.21672 | 39071 ft | 492 kts | 43° |
| 2026-05-04 07:49 | 31.00575 | -94.96079 | 39076 ft | 494 kts | 43° |
| 2026-05-04 07:49 | 31.04707 | -94.89659 | 39072 ft | 494 kts | 43° |
| 2026-05-04 07:50 | 31.08831 | -94.83242 | 39079 ft | 494 kts | 43° |
| 2026-05-04 07:50 | 31.12984 | -94.76771 | 39082 ft | 495 kts | 43° |
| 2026-05-04 07:51 | 31.17372 | -94.70681 | 39076 ft | 480 kts | 32° |
| 2026-05-04 07:51 | 31.22419 | -94.65685 | 39079 ft | 474 kts | 28° |
| 2026-05-04 07:52 | 31.27490 | -94.60761 | 39075 ft | 475 kts | 28° |
| 2026-05-04 07:52 | 31.32591 | -94.55798 | 39072 ft | 476 kts | 28° |
| 2026-05-04 07:54 | 31.52939 | -94.35922 | 39068 ft | 475 kts | 28° |
| 2026-05-04 07:55 | 31.58034 | -94.30928 | 39070 ft | 476 kts | 29° |
| 2026-05-04 07:55 | 31.63134 | -94.25920 | 39067 ft | 476 kts | 29° |
| 2026-05-04 07:56 | 31.68226 | -94.20913 | 39071 ft | 477 kts | 29° |
| 2026-05-04 07:56 | 31.73312 | -94.15905 | 39070 ft | 477 kts | 29° |
| 2026-05-04 07:57 | 31.78398 | -94.10889 | 39067 ft | 477 kts | 29° |
| 2026-05-04 07:57 | 31.83505 | -94.05846 | 39073 ft | 478 kts | 29° |
| 2026-05-04 07:58 | 31.88613 | -94.00792 | 39070 ft | 479 kts | 29° |
| 2026-05-04 07:58 | 31.93721 | -93.95732 | 39072 ft | 479 kts | 29° |
| 2026-05-04 07:59 | 31.98840 | -93.90653 | 39068 ft | 479 kts | 29° |
| 2026-05-04 07:59 | 32.03930 | -93.85596 | 39073 ft | 480 kts | 29° |
| 2026-05-04 08:00 | 32.09061 | -93.80489 | 39066 ft | 481 kts | 29° |
| 2026-05-04 08:02 | 32.29479 | -93.60089 | 39060 ft | 478 kts | 29° |
| 2026-05-04 08:02 | 32.34539 | -93.55015 | 39060 ft | 477 kts | 29° |
| 2026-05-04 08:03 | 32.39623 | -93.49908 | 39063 ft | 477 kts | 29° |
| 2026-05-04 08:03 | 32.44688 | -93.44813 | 39050 ft | 476 kts | 29° |
| 2026-05-04 08:04 | 32.49715 | -93.39749 | 39053 ft | 476 kts | 29° |
| 2026-05-04 08:04 | 32.54772 | -93.34647 | 39060 ft | 477 kts | 29° |
| 2026-05-04 08:05 | 32.59844 | -93.29522 | 39061 ft | 477 kts | 29° |
| 2026-05-04 08:05 | 32.64917 | -93.24389 | 39060 ft | 477 kts | 29° |
| 2026-05-04 08:06 | 32.69972 | -93.19267 | 39059 ft | 478 kts | 29° |
| 2026-05-04 08:06 | 32.75037 | -93.14123 | 39048 ft | 478 kts | 29° |
| 2026-05-04 08:08 | 32.95237 | -92.93536 | 39029 ft | 477 kts | 28° |
| 2026-05-04 08:11 | 33.17938 | -92.70248 | 39037 ft | 476 kts | 28° |
| 2026-05-04 08:11 | 33.25455 | -92.62499 | 39029 ft | 476 kts | 28° |
| 2026-05-04 08:12 | 33.30474 | -92.57317 | 39026 ft | 476 kts | 28° |
| 2026-05-04 08:12 | 33.35493 | -92.52124 | 39017 ft | 476 kts | 28° |
| 2026-05-04 08:13 | 33.40518 | -92.46920 | 39024 ft | 477 kts | 28° |
| 2026-05-04 08:13 | 33.45541 | -92.41706 | 39025 ft | 476 kts | 28° |
| 2026-05-04 08:14 | 33.50507 | -92.36347 | 39020 ft | 485 kts | 34° |
| 2026-05-04 08:16 | 33.67606 | -92.10398 | 39013 ft | 499 kts | 40° |
| 2026-05-04 08:16 | 33.71900 | -92.03786 | 39016 ft | 499 kts | 40° |
| 2026-05-04 08:17 | 33.76149 | -91.97231 | 39017 ft | 499 kts | 41° |
| 2026-05-04 08:17 | 33.80445 | -91.90595 | 39015 ft | 499 kts | 41° |
| 2026-05-04 08:19 | 33.97497 | -91.64127 | 39012 ft | 499 kts | 41° |
| 2026-05-04 08:20 | 34.01172 | -91.58400 | 39020 ft | 498 kts | 40° |
| 2026-05-04 08:20 | 34.05409 | -91.51781 | 39012 ft | 498 kts | 41° |
| 2026-05-04 08:21 | 34.09636 | -91.45167 | 39010 ft | 497 kts | 41° |
| 2026-05-04 08:21 | 34.13867 | -91.38531 | 39007 ft | 496 kts | 41° |
| 2026-05-04 08:22 | 34.18071 | -91.31930 | 38998 ft | 496 kts | 42° |
| 2026-05-04 08:24 | 34.34889 | -91.05395 | 39007 ft | 495 kts | 43° |
| 2026-05-04 08:24 | 34.39081 | -90.98750 | 39003 ft | 495 kts | 43° |
| 2026-05-04 08:25 | 34.43250 | -90.92128 | 39013 ft | 494 kts | 43° |
| 2026-05-04 08:25 | 34.47421 | -90.85493 | 39012 ft | 494 kts | 43° |
| 2026-05-04 08:27 | 34.64032 | -90.58942 | 39002 ft | 493 kts | 44° |
| 2026-05-04 08:28 | 34.68160 | -90.52315 | 39003 ft | 492 kts | 44° |
| 2026-05-04 08:28 | 34.72301 | -90.45651 | 39013 ft | 492 kts | 44° |
| 2026-05-04 08:29 | 34.76416 | -90.39017 | 39018 ft | 491 kts | 44° |
| 2026-05-04 08:31 | 34.92858 | -90.12391 | 39024 ft | 491 kts | 45° |
| 2026-05-04 08:33 | 35.09081 | -89.91531 | 38985 ft | 468 kts | 27° |
| 2026-05-04 08:33 | 35.11827 | -89.89071 | 39013 ft | 467 kts | 27° |
| 2026-05-04 08:35 | 35.34427 | -89.68753 | 38996 ft | 469 kts | 28° |
| 2026-05-04 08:35 | 35.40053 | -89.63670 | 38992 ft | 468 kts | 28° |
| 2026-05-04 08:37 | 35.58518 | -89.46932 | 38978 ft | 468 kts | 28° |
| 2026-05-04 08:38 | 35.63766 | -89.42156 | 38983 ft | 468 kts | 28° |
| 2026-05-04 08:38 | 35.69020 | -89.37368 | 38976 ft | 468 kts | 28° |
| 2026-05-04 08:40 | 35.89994 | -89.18173 | 38956 ft | 469 kts | 28° |
| 2026-05-04 08:41 | 35.95215 | -89.13374 | 38962 ft | 469 kts | 29° |
| 2026-05-04 08:41 | 36.00483 | -89.08523 | 38952 ft | 469 kts | 29° |
| 2026-05-04 08:42 | 36.05700 | -89.03711 | 38942 ft | 469 kts | 29° |
| 2026-05-04 08:42 | 36.10955 | -88.98857 | 38957 ft | 469 kts | 29° |
| 2026-05-04 08:43 | 36.16213 | -88.93990 | 38947 ft | 470 kts | 29° |
| 2026-05-04 08:43 | 36.21424 | -88.89158 | 38952 ft | 469 kts | 29° |
| 2026-05-04 08:44 | 36.26672 | -88.84283 | 38948 ft | 469 kts | 28° |
| 2026-05-04 08:46 | 36.47550 | -88.64808 | 38946 ft | 469 kts | 28° |
| 2026-05-04 08:46 | 36.52778 | -88.59910 | 38949 ft | 469 kts | 29° |
| 2026-05-04 08:47 | 36.57980 | -88.55028 | 38944 ft | 468 kts | 28° |
| 2026-05-04 08:47 | 36.63194 | -88.50126 | 38957 ft | 468 kts | 29° |
| 2026-05-04 08:48 | 36.68412 | -88.45212 | 38954 ft | 469 kts | 29° |
| 2026-05-04 08:48 | 36.73636 | -88.40285 | 38951 ft | 469 kts | 28° |
| 2026-05-04 08:49 | 36.78833 | -88.35374 | 38949 ft | 470 kts | 28° |
| 2026-05-04 08:50 | 36.97089 | -88.18054 | 38934 ft | 471 kts | 29° |
| 2026-05-04 08:51 | 37.02320 | -88.13071 | 38942 ft | 471 kts | 29° |
| 2026-05-04 08:51 | 37.07526 | -88.08103 | 38939 ft | 470 kts | 29° |
| 2026-05-04 08:52 | 37.12740 | -88.03120 | 38940 ft | 471 kts | 29° |
| 2026-05-04 08:52 | 37.17965 | -87.98116 | 38940 ft | 471 kts | 29° |
| 2026-05-04 08:54 | 37.38274 | -87.77007 | 38933 ft | 481 kts | 38° |
| 2026-05-04 08:55 | 37.42935 | -87.70976 | 38925 ft | 480 kts | 38° |
| 2026-05-04 08:55 | 37.47605 | -87.64925 | 38933 ft | 480 kts | 38° |
| 2026-05-04 09:01 | 37.96526 | -87.00879 | 38926 ft | 482 kts | 38° |
| 2026-05-04 09:01 | 38.01172 | -86.94730 | 38933 ft | 482 kts | 38° |
| 2026-05-04 09:02 | 38.05822 | -86.88562 | 38932 ft | 481 kts | 38° |
| 2026-05-04 09:02 | 38.10451 | -86.82410 | 38923 ft | 481 kts | 38° |
| 2026-05-04 09:03 | 38.15071 | -86.76260 | 38931 ft | 481 kts | 38° |
| 2026-05-04 09:03 | 38.19702 | -86.70083 | 38928 ft | 482 kts | 38° |
| 2026-05-04 09:04 | 38.24330 | -86.63896 | 38917 ft | 481 kts | 38° |
| 2026-05-04 09:04 | 38.28963 | -86.57692 | 38919 ft | 482 kts | 38° |
| 2026-05-04 09:05 | 38.33575 | -86.51503 | 38925 ft | 482 kts | 38° |
| 2026-05-04 09:05 | 38.38189 | -86.45299 | 38927 ft | 481 kts | 38° |
| 2026-05-04 09:06 | 38.42789 | -86.39102 | 38922 ft | 481 kts | 38° |
| 2026-05-04 09:08 | 38.61136 | -86.14258 | 38921 ft | 477 kts | 38° |
| 2026-05-04 09:08 | 38.65712 | -86.08031 | 38911 ft | 477 kts | 38° |
| 2026-05-04 09:09 | 38.70233 | -86.01867 | 38925 ft | 477 kts | 38° |
| 2026-05-04 09:09 | 38.74801 | -85.95628 | 38907 ft | 478 kts | 38° |
| 2026-05-04 09:10 | 38.79344 | -85.89410 | 38913 ft | 478 kts | 38° |
| 2026-05-04 09:10 | 38.83911 | -85.83145 | 38875 ft | 478 kts | 38° |
| 2026-05-04 09:11 | 38.88434 | -85.76929 | 38895 ft | 477 kts | 38° |
| 2026-05-04 09:11 | 38.92960 | -85.70696 | 38882 ft | 478 kts | 38° |
| 2026-05-04 09:12 | 38.97480 | -85.64459 | 38898 ft | 477 kts | 38° |
| 2026-05-04 09:14 | 39.15548 | -85.39400 | 38890 ft | 476 kts | 39° |
| 2026-05-04 09:14 | 39.20046 | -85.33131 | 38892 ft | 477 kts | 40° |
| 2026-05-04 09:15 | 39.24553 | -85.26835 | 38907 ft | 477 kts | 40° |
| 2026-05-04 09:15 | 39.29063 | -85.20522 | 38913 ft | 478 kts | 40° |
| 2026-05-04 09:17 | 39.49298 | -84.92039 | 38891 ft | 477 kts | 40° |
| 2026-05-04 09:18 | 39.53798 | -84.85669 | 38898 ft | 476 kts | 40° |
| 2026-05-04 09:18 | 39.58263 | -84.79334 | 38903 ft | 476 kts | 40° |
| 2026-05-04 09:19 | 39.62746 | -84.72962 | 38891 ft | 476 kts | 41° |
| 2026-05-04 09:19 | 39.67199 | -84.66618 | 38897 ft | 476 kts | 41° |
| 2026-05-04 09:20 | 39.71633 | -84.60288 | 38895 ft | 475 kts | 41° |
| 2026-05-04 09:20 | 39.76093 | -84.53910 | 38897 ft | 475 kts | 41° |
| 2026-05-04 09:21 | 39.80554 | -84.47515 | 38892 ft | 475 kts | 41° |
| 2026-05-04 09:21 | 39.84986 | -84.41149 | 38899 ft | 475 kts | 41° |
| 2026-05-04 09:22 | 39.89420 | -84.34769 | 38904 ft | 475 kts | 42° |
| 2026-05-04 09:22 | 39.93967 | -84.28482 | 38903 ft | 472 kts | 38° |
| 2026-05-04 09:23 | 39.98669 | -84.22566 | 38897 ft | 472 kts | 38° |
| 2026-05-04 09:23 | 40.03410 | -84.16581 | 38907 ft | 472 kts | 38° |
| 2026-05-04 09:25 | 40.22240 | -83.92664 | 38882 ft | 471 kts | 38° |
| 2026-05-04 09:26 | 40.26933 | -83.86669 | 38878 ft | 471 kts | 38° |
| 2026-05-04 09:26 | 40.31622 | -83.80666 | 38882 ft | 471 kts | 38° |
| 2026-05-04 09:27 | 40.36313 | -83.74649 | 38886 ft | 471 kts | 38° |
| 2026-05-04 09:27 | 40.41007 | -83.68615 | 38874 ft | 471 kts | 38° |
| 2026-05-04 09:28 | 40.45726 | -83.62536 | 38873 ft | 472 kts | 38° |
| 2026-05-04 09:28 | 40.50397 | -83.56504 | 38863 ft | 472 kts | 38° |
| 2026-05-04 09:29 | 40.55107 | -83.50410 | 38871 ft | 472 kts | 38° |
| 2026-05-04 09:29 | 40.59785 | -83.44344 | 38870 ft | 473 kts | 38° |
| 2026-05-04 09:30 | 40.64463 | -83.38267 | 38855 ft | 472 kts | 38° |
| 2026-05-04 09:30 | 40.69131 | -83.32175 | 38866 ft | 472 kts | 40° |
| 2026-05-04 09:31 | 40.73330 | -83.25412 | 38858 ft | 478 kts | 47° |
| 2026-05-04 09:31 | 40.77412 | -83.18456 | 38865 ft | 478 kts | 47° |
| 2026-05-04 09:32 | 40.81485 | -83.11506 | 38863 ft | 480 kts | 47° |
| 2026-05-04 09:34 | 40.97783 | -82.83552 | 38847 ft | 480 kts | 47° |
| 2026-05-04 09:34 | 41.01851 | -82.76537 | 38863 ft | 481 kts | 47° |
| 2026-05-04 09:35 | 41.05938 | -82.69475 | 38860 ft | 481 kts | 47° |
| 2026-05-04 09:35 | 41.10005 | -82.62432 | 38844 ft | 482 kts | 47° |
| 2026-05-04 09:37 | 41.23257 | -82.32687 | 38860 ft | 487 kts | 57° |
| 2026-05-04 09:38 | 41.26461 | -82.24721 | 38863 ft | 487 kts | 57° |
| 2026-05-04 09:38 | 41.29641 | -82.16795 | 38853 ft | 488 kts | 57° |
| 2026-05-04 09:39 | 41.32853 | -82.08771 | 38856 ft | 489 kts | 57° |
| 2026-05-04 09:39 | 41.35801 | -82.00623 | 38862 ft | 492 kts | 63° |
| 2026-05-04 09:40 | 41.38469 | -81.92241 | 38852 ft | 491 kts | 62° |
| 2026-05-04 09:40 | 41.41142 | -81.83841 | 38844 ft | 491 kts | 63° |
| 2026-05-04 09:42 | 41.51747 | -81.50310 | 38856 ft | 492 kts | 63° |
| 2026-05-04 09:43 | 41.54405 | -81.41847 | 38852 ft | 492 kts | 63° |
| 2026-05-04 09:43 | 41.57048 | -81.33408 | 38855 ft | 492 kts | 63° |
| 2026-05-04 09:44 | 41.59664 | -81.25029 | 38841 ft | 492 kts | 63° |
| 2026-05-04 09:46 | 41.70171 | -80.91114 | 38847 ft | 494 kts | 63° |
| 2026-05-04 09:46 | 41.72803 | -80.82551 | 38840 ft | 494 kts | 64° |
| 2026-05-04 09:47 | 41.75406 | -80.74052 | 38853 ft | 494 kts | 64° |
| 2026-05-04 09:49 | 41.85273 | -80.39643 | 38850 ft | 496 kts | 66° |
| 2026-05-04 09:51 | 41.93435 | -80.09242 | 38861 ft | 495 kts | 67° |
| 2026-05-04 09:51 | 41.95763 | -80.00504 | 38832 ft | 494 kts | 67° |
| 2026-05-04 09:52 | 41.98064 | -79.91834 | 38851 ft | 494 kts | 67° |
| 2026-05-04 09:52 | 42.00373 | -79.83109 | 38837 ft | 495 kts | 67° |
| 2026-05-04 09:53 | 42.02665 | -79.74413 | 38846 ft | 496 kts | 67° |
| 2026-05-04 09:53 | 42.04964 | -79.65659 | 38843 ft | 496 kts | 67° |
| 2026-05-04 09:54 | 42.07247 | -79.56935 | 38842 ft | 496 kts | 67° |
| 2026-05-04 09:54 | 42.09536 | -79.48161 | 38848 ft | 495 kts | 67° |
| 2026-05-04 09:55 | 42.11818 | -79.39380 | 38870 ft | 496 kts | 67° |
| 2026-05-04 09:55 | 42.14100 | -79.30564 | 38870 ft | 496 kts | 68° |
| 2026-05-04 09:56 | 42.16179 | -79.21733 | 38886 ft | 499 kts | 75° |
| 2026-05-04 09:56 | 42.17020 | -79.12426 | 38863 ft | 503 kts | 88° |
| 2026-05-04 09:57 | 42.16349 | -79.03052 | 38860 ft | 504 kts | 102° |
| 2026-05-04 09:57 | 42.14352 | -78.94039 | 38855 ft | 504 kts | 109° |
| 2026-05-04 09:58 | 42.12096 | -78.85067 | 38875 ft | 504 kts | 109° |
| 2026-05-04 09:58 | 42.09855 | -78.76172 | 38863 ft | 505 kts | 109° |
| 2026-05-04 10:00 | 42.00757 | -78.40391 | 38876 ft | 505 kts | 109° |
| 2026-05-04 10:04 | 41.84570 | -77.77992 | 38891 ft | 506 kts | 110° |
| 2026-05-04 10:04 | 41.82227 | -77.69091 | 38892 ft | 506 kts | 110° |
| 2026-05-04 10:05 | 41.79881 | -77.60210 | 38900 ft | 506 kts | 110° |
| 2026-05-04 10:05 | 41.77521 | -77.51311 | 38917 ft | 506 kts | 110° |
| 2026-05-04 10:06 | 41.75164 | -77.42453 | 38916 ft | 507 kts | 110° |
| 2026-05-04 10:06 | 41.72787 | -77.33551 | 38921 ft | 507 kts | 111° |
| 2026-05-04 10:08 | 41.64449 | -77.02584 | 38931 ft | 506 kts | 111° |
| 2026-05-04 10:08 | 41.62061 | -76.93788 | 38929 ft | 506 kts | 111° |
| 2026-05-04 10:09 | 41.59649 | -76.84933 | 38879 ft | 503 kts | 111° |
| 2026-05-04 10:09 | 41.58467 | -76.80602 | 38659 ft | 501 kts | 111° |
| 2026-05-04 10:09 | 41.57278 | -76.76258 | 38248 ft | 496 kts | 111° |
| 2026-05-04 10:10 | 41.56087 | -76.71912 | 37661 ft | 498 kts | 111° |
| 2026-05-04 10:10 | 41.54901 | -76.67594 | 37021 ft | 500 kts | 111° |
| 2026-05-04 10:10 | 41.53709 | -76.63263 | 36376 ft | 501 kts | 111° |
| 2026-05-04 10:10 | 41.52502 | -76.58884 | 35767 ft | 501 kts | 111° |
| 2026-05-04 10:11 | 41.51295 | -76.54510 | 35141 ft | 501 kts | 110° |
| 2026-05-04 10:11 | 41.50098 | -76.50181 | 34478 ft | 502 kts | 110° |
| 2026-05-04 10:11 | 41.48888 | -76.45812 | 33818 ft | 503 kts | 110° |
| 2026-05-04 10:11 | 41.47677 | -76.41446 | 33156 ft | 502 kts | 110° |
| 2026-05-04 10:12 | 41.46464 | -76.37084 | 32313 ft | 501 kts | 110° |
| 2026-05-04 10:12 | 41.45248 | -76.32716 | 31387 ft | 502 kts | 110° |
| 2026-05-04 10:12 | 41.44040 | -76.28387 | 30305 ft | 502 kts | 110° |
| 2026-05-04 10:12 | 41.42831 | -76.24058 | 29311 ft | 499 kts | 110° |
| 2026-05-04 10:13 | 41.41621 | -76.19733 | 28479 ft | 493 kts | 110° |
| 2026-05-04 10:13 | 41.40427 | -76.15475 | 27690 ft | 487 kts | 110° |
| 2026-05-04 10:13 | 41.39245 | -76.11266 | 26906 ft | 481 kts | 110° |
| 2026-05-04 10:13 | 41.38096 | -76.07178 | 26147 ft | 475 kts | 110° |
| 2026-05-04 10:14 | 41.36938 | -76.03069 | 25361 ft | 470 kts | 110° |
| 2026-05-04 10:14 | 41.35798 | -75.99028 | 24556 ft | 465 kts | 110° |
| 2026-05-04 10:16 | 41.28125 | -75.71998 | 19399 ft | 425 kts | 111° |
| 2026-05-04 10:16 | 41.27052 | -75.68343 | 18828 ft | 427 kts | 113° |
| 2026-05-04 10:16 | 41.25849 | -75.64682 | 18195 ft | 426 kts | 115° |
| 2026-05-04 10:16 | 41.24657 | -75.61116 | 17505 ft | 423 kts | 115° |
| 2026-05-04 10:17 | 41.23465 | -75.57547 | 16802 ft | 416 kts | 115° |
| 2026-05-04 10:17 | 41.22302 | -75.54069 | 16207 ft | 410 kts | 115° |
| 2026-05-04 10:19 | 41.14619 | -75.31193 | 12148 ft | 360 kts | 116° |
| 2026-05-04 10:19 | 41.13612 | -75.28207 | 11592 ft | 354 kts | 116° |
| 2026-05-04 10:19 | 41.12613 | -75.25247 | 11050 ft | 347 kts | 117° |
| 2026-05-04 10:19 | 41.11633 | -75.22349 | 10533 ft | 342 kts | 117° |
| 2026-05-04 10:20 | 41.10670 | -75.19502 | 10020 ft | 336 kts | 117° |
| 2026-05-04 10:20 | 41.09714 | -75.16681 | 9517 ft | 331 kts | 117° |
| 2026-05-04 10:20 | 41.08783 | -75.13934 | 9017 ft | 326 kts | 117° |
| 2026-05-04 10:20 | 41.07863 | -75.11223 | 8530 ft | 322 kts | 117° |
| 2026-05-04 10:21 | 41.06947 | -75.08527 | 8056 ft | 317 kts | 117° |
| 2026-05-04 10:21 | 41.06048 | -75.05882 | 7569 ft | 314 kts | 117° |
| 2026-05-04 10:21 | 41.05154 | -75.03256 | 7098 ft | 310 kts | 117° |
| 2026-05-04 10:21 | 41.04273 | -75.00670 | 6625 ft | 306 kts | 117° |
| 2026-05-04 10:22 | 41.02563 | -74.95654 | 5979 ft | 289 kts | 117° |
| 2026-05-04 10:22 | 41.01727 | -74.93206 | 5965 ft | 291 kts | 117° |
| 2026-05-04 10:22 | 41.00900 | -74.90786 | 5835 ft | 282 kts | 117° |
| 2026-05-04 10:23 | 41.00223 | -74.88396 | 5648 ft | 278 kts | 104° |
| 2026-05-04 10:23 | 41.00153 | -74.85769 | 5520 ft | 292 kts | 81° |